Time;durP1;ratioP1;P1;durP2;ratioP2;P2;SDS_P1;SDS_P2;PMS_P1;PMS_P2;Temp;Humidity;BMP_temperature;BMP_pressure;BME280_temperature;BME280_humidity;BME280_pressure;Samples;Min_cycle;Max_cycle;Signal;HPM_P1;HPM_P2
2021/08/18 00:00:44;;;;;;;3.13;2.47;;;24.70;54.50;;;;;;6242768;28;20431;-71
2021/08/18 00:03:44;;;;;;;2.88;2.17;;;24.60;53.70;;;;;;6242910;28;20048;-72
2021/08/18 00:06:45;;;;;;;3.47;2.53;;;24.70;53.70;;;;;;6242856;28;20025;-71
2021/08/18 00:09:47;;;;;;;2.30;2.10;;;24.60;53.70;;;;;;6242378;28;20100;-71
2021/08/18 00:12:48;;;;;;;3.05;2.15;;;24.60;53.80;;;;;;6242510;28;20017;-71
2021/08/18 00:15:50;;;;;;;2.33;2.00;;;24.60;53.80;;;;;;6220015;28;20168;-71
2021/08/18 00:18:53;;;;;;;3.17;2.10;;;24.60;53.90;;;;;;6234903;28;20030;-71
2021/08/18 00:21:54;;;;;;;3.08;2.20;;;24.60;53.70;;;;;;6242362;28;20033;-71
2021/08/18 00:24:54;;;;;;;2.90;2.13;;;24.70;53.90;;;;;;6242182;28;20537;-71
2021/08/18 00:27:55;;;;;;;2.58;2.00;;;24.60;53.80;;;;;;6240246;28;20087;-71
2021/08/18 00:30:56;;;;;;;3.10;2.17;;;24.60;53.70;;;;;;6241821;28;20087;-71
2021/08/18 00:33:56;;;;;;;2.72;1.77;;;24.60;53.70;;;;;;6242030;28;20063;-71
2021/08/18 00:36:57;;;;;;;2.53;1.90;;;24.60;53.90;;;;;;6242304;28;20499;-72
2021/08/18 00:39:57;;;;;;;4.43;2.28;;;24.60;53.90;;;;;;6241849;28;20033;-71
2021/08/18 00:42:58;;;;;;;2.60;1.90;;;24.60;53.80;;;;;;6241686;28;20480;-71
2021/08/18 00:45:58;;;;;;;2.42;2.20;;;24.60;53.70;;;;;;6242183;28;20034;-71
2021/08/18 00:48:59;;;;;;;3.08;2.30;;;24.60;53.90;;;;;;6241865;28;20246;-71
2021/08/18 00:52:00;;;;;;;2.28;1.88;;;24.60;53.90;;;;;;6242006;28;20477;-71
2021/08/18 00:55:01;;;;;;;2.88;2.22;;;24.60;53.80;;;;;;6241828;28;20030;-72
2021/08/18 00:58:02;;;;;;;2.17;1.70;;;24.60;53.90;;;;;;6241488;28;20053;-72
2021/08/18 01:01:03;;;;;;;2.88;2.05;;;24.60;53.90;;;;;;6241608;28;20044;-71
2021/08/18 01:04:06;;;;;;;2.10;1.80;;;24.60;53.80;;;;;;6241260;28;20018;-71
2021/08/18 01:07:07;;;;;;;2.28;1.83;;;24.60;54.60;;;;;;6212704;28;20072;-72
2021/08/18 01:10:10;;;;;;;2.47;1.80;;;24.60;53.80;;;;;;6232568;28;20022;-71
2021/08/18 01:13:11;;;;;;;2.58;2.03;;;24.60;53.90;;;;;;6240518;28;20033;-72
2021/08/18 01:16:12;;;;;;;2.47;1.83;;;24.60;53.80;;;;;;6241223;28;20029;-71
2021/08/18 01:19:15;;;;;;;1.92;1.73;;;24.60;53.90;;;;;;6241171;28;20033;-71
2021/08/18 01:22:16;;;;;;;2.60;1.83;;;24.60;53.90;;;;;;6240825;28;20026;-71
2021/08/18 01:25:17;;;;;;;2.15;1.70;;;24.60;53.70;;;;;;6241335;28;20029;-72
2021/08/18 01:28:18;;;;;;;2.38;1.63;;;24.60;53.80;;;;;;6241134;28;20018;-72
2021/08/18 01:31:19;;;;;;;2.33;1.95;;;24.60;53.90;;;;;;6240410;28;20040;-71
2021/08/18 01:34:19;;;;;;;3.20;1.77;;;24.60;53.80;;;;;;6241113;28;20030;-71
2021/08/18 01:37:20;;;;;;;1.85;1.58;;;24.60;53.90;;;;;;6241430;28;20481;-72
2021/08/18 01:40:22;;;;;;;2.72;1.90;;;24.60;53.90;;;;;;6240592;28;20042;-71
2021/08/18 01:43:23;;;;;;;1.90;1.67;;;24.60;53.80;;;;;;6240791;28;20026;-71
2021/08/18 01:46:23;;;;;;;2.17;1.80;;;24.60;53.80;;;;;;6238856;28;20034;-71
2021/08/18 01:49:26;;;;;;;2.30;1.80;;;24.60;53.80;;;;;;6240567;28;20040;-71
2021/08/18 01:52:26;;;;;;;1.65;1.42;;;24.60;53.90;;;;;;6241597;28;20113;-71
2021/08/18 01:55:27;;;;;;;2.35;1.73;;;24.60;53.90;;;;;;6240916;28;20017;-72
2021/08/18 01:58:29;;;;;;;2.65;1.85;;;24.60;53.90;;;;;;6240722;28;20065;-71
2021/08/18 02:01:29;;;;;;;2.10;1.67;;;24.60;53.90;;;;;;6240568;28;20629;-71
2021/08/18 02:04:30;;;;;;;1.95;1.48;;;24.60;53.90;;;;;;6240414;28;20057;-71
2021/08/18 02:07:30;;;;;;;2.95;2.13;;;24.60;53.90;;;;;;6240951;28;20029;-71
2021/08/18 02:10:31;;;;;;;2.00;1.63;;;24.60;53.90;;;;;;6240819;28;20124;-71
2021/08/18 02:13:33;;;;;;;2.25;1.65;;;24.60;53.90;;;;;;6236639;28;20018;-72
2021/08/18 02:16:33;;;;;;;2.33;1.80;;;24.60;53.90;;;;;;6233710;28;20025;-71
2021/08/18 02:19:34;;;;;;;2.28;1.67;;;24.60;53.90;;;;;;6240210;28;20037;-71
2021/08/18 02:22:35;;;;;;;2.25;1.65;;;24.60;53.90;;;;;;6244548;28;20026;-71
2021/08/18 02:25:35;;;;;;;1.77;1.48;;;24.60;53.90;;;;;;6245016;28;20032;-71
2021/08/18 02:28:36;;;;;;;1.98;1.60;;;24.60;53.90;;;;;;6245137;28;20388;-71
2021/08/18 02:31:36;;;;;;;1.83;1.42;;;24.60;53.90;;;;;;6244504;28;20029;-71
2021/08/18 02:34:37;;;;;;;2.15;1.55;;;24.60;53.90;;;;;;6245353;28;20036;-71
2021/08/18 02:37:38;;;;;;;2.28;1.50;;;24.60;53.90;;;;;;6244696;28;20021;-72
2021/08/18 02:40:39;;;;;;;1.85;1.23;;;24.60;53.90;;;;;;6245114;28;20052;-71
2021/08/18 02:43:39;;;;;;;1.90;1.33;;;24.60;53.90;;;;;;6244900;28;20033;-71
2021/08/18 02:46:40;;;;;;;1.35;1.20;;;24.60;54.60;;;;;;6244688;28;20508;-71
2021/08/18 02:49:41;;;;;;;1.75;1.40;;;24.60;54.00;;;;;;6244521;28;20530;-71
2021/08/18 02:52:42;;;;;;;1.60;1.30;;;24.60;53.80;;;;;;6244205;28;20516;-71
2021/08/18 02:55:42;;;;;;;1.58;1.30;;;24.60;53.90;;;;;;6244434;28;20224;-71
2021/08/18 02:58:43;;;;;;;1.38;1.20;;;24.60;53.80;;;;;;6244321;28;20393;-71
2021/08/18 03:01:43;;;;;;;1.38;1.17;;;24.60;54.00;;;;;;6244575;28;20117;-71
2021/08/18 03:04:44;;;;;;;2.20;1.23;;;24.60;53.90;;;;;;6244231;28;20021;-71
2021/08/18 03:07:44;;;;;;;1.85;1.50;;;24.60;54.00;;;;;;6243776;28;20033;-72
2021/08/18 03:10:45;;;;;;;1.75;1.45;;;24.60;53.90;;;;;;6243848;28;20049;-72
2021/08/18 03:13:45;;;;;;;1.33;1.23;;;24.60;53.90;;;;;;6244136;28;20025;-71
2021/08/18 03:16:47;;;;;;;1.73;1.40;;;24.60;53.90;;;;;;6244256;28;20400;-71
2021/08/18 03:19:48;;;;;;;1.67;1.27;;;24.60;53.90;;;;;;6241439;28;20071;-72
2021/08/18 03:22:48;;;;;;;1.60;1.45;;;24.60;53.90;;;;;;6244011;28;20325;-71
2021/08/18 03:25:49;;;;;;;1.52;1.25;;;24.60;53.90;;;;;;6243873;28;20079;-71
2021/08/18 03:28:49;;;;;;;1.73;1.27;;;24.60;53.90;;;;;;6243529;28;20029;-71
2021/08/18 03:31:50;;;;;;;1.83;1.50;;;24.60;54.20;;;;;;6243753;28;20021;-71
2021/08/18 03:34:50;;;;;;;1.58;1.33;;;24.60;54.10;;;;;;6243606;28;20034;-71
2021/08/18 03:37:52;;;;;;;1.80;1.30;;;24.60;54.00;;;;;;6243810;28;20061;-71
2021/08/18 03:40:54;;;;;;;1.42;1.15;;;24.60;54.00;;;;;;6243833;28;20184;-71
2021/08/18 03:43:54;;;;;;;1.50;1.10;;;24.60;54.10;;;;;;6243422;28;20025;-72
2021/08/18 03:46:55;;;;;;;1.48;1.38;;;24.60;54.10;;;;;;6243044;28;20548;-72
2021/08/18 03:49:55;;;;;;;1.35;1.20;;;24.60;54.00;;;;;;6243112;28;20028;-71
2021/08/18 03:52:56;;;;;;;1.52;1.13;;;24.60;54.10;;;;;;6243494;28;20118;-71
2021/08/18 03:55:56;;;;;;;1.55;1.10;;;24.60;54.10;;;;;;6242972;28;20687;-71
2021/08/18 03:58:57;;;;;;;1.30;1.00;;;24.60;53.90;;;;;;6242909;28;20021;-71
2021/08/18 04:01:57;;;;;;;2.03;1.30;;;24.60;54.00;;;;;;6242829;28;20599;-72
2021/08/18 04:04:58;;;;;;;1.00;0.90;;;24.60;54.00;;;;;;6242944;28;20045;-71
2021/08/18 04:08:00;;;;;;;1.75;1.20;;;24.60;54.00;;;;;;6242485;28;20345;-71
2021/08/18 04:11:04;;;;;;;1.70;1.30;;;24.60;54.10;;;;;;6242696;28;20083;-71
2021/08/18 04:14:05;;;;;;;1.40;1.27;;;24.60;54.00;;;;;;6234640;28;20026;-71
2021/08/18 04:17:05;;;;;;;1.20;1.00;;;24.60;54.00;;;;;;6218462;28;20346;-71
2021/08/18 04:20:06;;;;;;;1.60;1.20;;;24.60;54.10;;;;;;6242437;28;20460;-71
2021/08/18 04:23:07;;;;;;;1.02;0.93;;;24.60;54.00;;;;;;6242648;28;20450;-71
2021/08/18 04:26:08;;;;;;;1.50;1.17;;;24.60;54.00;;;;;;6242270;28;20022;-71
2021/08/18 04:29:08;;;;;;;1.52;1.17;;;24.60;54.00;;;;;;6242342;28;20040;-71
2021/08/18 04:32:09;;;;;;;1.83;1.30;;;24.60;54.00;;;;;;6242322;28;20484;-71
2021/08/18 04:35:12;;;;;;;1.40;1.10;;;24.60;54.10;;;;;;6242192;28;20044;-71
2021/08/18 04:38:12;;;;;;;1.25;1.02;;;24.60;54.10;;;;;;6241731;28;20491;-71
2021/08/18 04:41:13;;;;;;;1.95;1.40;;;24.60;54.10;;;;;;6242089;28;20120;-71
2021/08/18 04:44:13;;;;;;;1.20;1.00;;;24.60;54.10;;;;;;6241827;28;20033;-71
2021/08/18 04:47:14;;;;;;;1.38;1.25;;;24.60;54.10;;;;;;6242189;28;20029;-71
2021/08/18 04:50:15;;;;;;;1.40;1.30;;;24.60;54.10;;;;;;6241404;28;20611;-71
2021/08/18 04:53:15;;;;;;;1.77;1.10;;;24.60;54.20;;;;;;6241660;28;20025;-71
2021/08/18 04:56:16;;;;;;;1.15;0.95;;;24.60;54.10;;;;;;6241231;28;20064;-71
2021/08/18 04:59:16;;;;;;;1.77;1.30;;;24.60;54.20;;;;;;6241576;28;20033;-71
2021/08/18 05:02:17;;;;;;;1.88;1.17;;;24.60;54.10;;;;;;6240045;28;20385;-71
2021/08/18 05:05:18;;;;;;;1.95;1.10;;;24.60;54.10;;;;;;6241899;28;20025;-71
2021/08/18 05:08:18;;;;;;;1.13;0.95;;;24.60;54.30;;;;;;6243656;28;20091;-71
2021/08/18 05:11:19;;;;;;;1.23;1.00;;;24.60;54.10;;;;;;6221803;28;20041;-71
2021/08/18 05:14:19;;;;;;;2.67;0.98;;;24.60;54.30;;;;;;6237609;28;20452;-72
2021/08/18 05:17:20;;;;;;;2.53;1.30;;;24.60;54.20;;;;;;6239876;28;20026;-73
2021/08/18 05:20:21;;;;;;;1.33;1.00;;;24.60;54.00;;;;;;6239551;28;20053;-71
2021/08/18 05:23:21;;;;;;;1.27;1.00;;;24.60;53.90;;;;;;6240157;28;20451;-71
2021/08/18 05:26:22;;;;;;;2.22;1.20;;;24.70;53.90;;;;;;6238828;28;20022;-71
2021/08/18 05:29:22;;;;;;;2.40;1.13;;;24.70;53.90;;;;;;6241160;28;20104;-71
2021/08/18 05:32:23;;;;;;;1.88;0.90;;;24.70;53.90;;;;;;6243975;28;20304;-72
2021/08/18 05:35:23;;;;;;;1.02;0.80;;;24.70;54.20;;;;;;6244095;28;20033;-72
2021/08/18 05:38:24;;;;;;;1.33;1.08;;;24.70;54.20;;;;;;6218119;28;20127;-72
2021/08/18 05:41:24;;;;;;;2.08;1.08;;;24.70;54.30;;;;;;6238343;28;20041;-72
2021/08/18 05:44:25;;;;;;;1.25;1.10;;;24.70;54.30;;;;;;6240332;28;20438;-71
2021/08/18 05:47:25;;;;;;;3.90;1.10;;;24.60;54.30;;;;;;6241383;28;20200;-71
2021/08/18 05:50:26;;;;;;;2.03;1.00;;;24.70;54.40;;;;;;6240442;28;20482;-72
2021/08/18 05:53:26;;;;;;;1.08;0.77;;;24.60;54.20;;;;;;6241360;28;20032;-73
2021/08/18 05:56:27;;;;;;;1.88;1.10;;;24.60;54.30;;;;;;6243425;28;20683;-72
2021/08/18 05:59:27;;;;;;;2.33;1.05;;;24.60;54.20;;;;;;6244323;28;20539;-71
2021/08/18 06:02:28;;;;;;;1.90;1.02;;;24.60;54.30;;;;;;6232581;28;20121;-72
2021/08/18 06:05:30;;;;;;;2.67;1.25;;;24.60;54.30;;;;;;6243398;28;20159;-71
2021/08/18 06:08:30;;;;;;;1.73;1.35;;;24.60;54.40;;;;;;6248448;28;20448;-72
2021/08/18 06:11:31;;;;;;;2.60;0.98;;;24.60;54.30;;;;;;6248302;28;20388;-71
2021/08/18 06:14:31;;;;;;;1.02;0.93;;;24.60;54.30;;;;;;6237469;28;20033;-71
2021/08/18 06:17:32;;;;;;;1.10;0.73;;;24.60;54.20;;;;;;6248425;28;20041;-71
2021/08/18 06:20:32;;;;;;;1.30;1.10;;;24.60;54.20;;;;;;6247777;28;20041;-72
2021/08/18 06:23:34;;;;;;;1.00;0.75;;;24.60;54.30;;;;;;6248441;28;20018;-71
2021/08/18 06:26:34;;;;;;;3.42;1.05;;;24.60;54.30;;;;;;6248032;28;20041;-71
2021/08/18 06:29:35;;;;;;;1.23;1.08;;;24.60;54.20;;;;;;6247894;28;20061;-71
2021/08/18 06:32:37;;;;;;;1.30;1.10;;;24.60;54.30;;;;;;6223549;28;20540;-72
2021/08/18 06:35:37;;;;;;;2.88;1.10;;;24.60;54.20;;;;;;6242069;28;20044;-71
2021/08/18 06:38:38;;;;;;;3.15;1.30;;;24.60;54.20;;;;;;6247681;28;20493;-71
2021/08/18 06:41:38;;;;;;;1.75;1.20;;;24.60;54.30;;;;;;6247884;28;20065;-71
2021/08/18 06:44:39;;;;;;;1.95;1.20;;;24.60;54.20;;;;;;6247830;28;20500;-72
2021/08/18 06:47:40;;;;;;;1.20;0.93;;;24.60;54.20;;;;;;6247550;28;20025;-71
2021/08/18 06:50:41;;;;;;;1.20;0.98;;;24.60;54.20;;;;;;6247303;28;20041;-71
2021/08/18 06:53:43;;;;;;;1.33;1.00;;;24.60;54.20;;;;;;6247285;28;20026;-71
2021/08/18 06:56:43;;;;;;;1.15;1.00;;;24.60;54.10;;;;;;6246783;28;20054;-71
2021/08/18 06:59:44;;;;;;;1.73;1.10;;;24.60;54.30;;;;;;6247006;28;20041;-72
2021/08/18 07:02:46;;;;;;;2.55;0.90;;;24.60;54.10;;;;;;6246909;28;20029;-71
2021/08/18 07:05:46;;;;;;;1.23;1.00;;;24.60;54.10;;;;;;6246689;28;20017;-71
2021/08/18 07:08:47;;;;;;;1.05;0.80;;;24.60;54.10;;;;;;6247057;28;20053;-72
2021/08/18 07:11:47;;;;;;;1.50;1.10;;;24.60;54.10;;;;;;6246651;28;20021;-72
2021/08/18 07:14:48;;;;;;;1.00;0.90;;;24.60;54.20;;;;;;6246926;28;20029;-71
2021/08/18 07:17:49;;;;;;;1.20;0.90;;;24.60;54.10;;;;;;6246882;28;20030;-71
2021/08/18 07:20:50;;;;;;;1.77;1.08;;;24.60;54.10;;;;;;6246192;28;20383;-71
2021/08/18 07:23:52;;;;;;;1.13;0.80;;;24.60;54.10;;;;;;6246795;28;20032;-71
2021/08/18 07:26:53;;;;;;;0.93;0.77;;;24.60;54.30;;;;;;6246945;28;20053;-72
2021/08/18 07:29:55;;;;;;;1.88;0.93;;;24.60;54.20;;;;;;6246190;28;20028;-72
2021/08/18 07:32:56;;;;;;;1.63;0.90;;;24.60;54.10;;;;;;6246944;28;20484;-71
2021/08/18 07:35:56;;;;;;;0.98;0.85;;;24.60;54.20;;;;;;6246803;28;20022;-72
2021/08/18 07:38:57;;;;;;;1.70;1.05;;;24.60;54.30;;;;;;6246013;28;20034;-71
2021/08/18 07:41:57;;;;;;;1.00;0.77;;;24.60;54.10;;;;;;6246132;28;20645;-72
2021/08/18 07:44:58;;;;;;;1.05;0.80;;;24.60;54.20;;;;;;6246499;28;20064;-71
2021/08/18 07:47:58;;;;;;;1.30;0.95;;;24.60;54.20;;;;;;6246340;28;20214;-71
2021/08/18 07:50:59;;;;;;;1.15;0.80;;;24.60;54.30;;;;;;6246473;28;20105;-71
2021/08/18 07:54:00;;;;;;;0.95;0.80;;;24.60;54.30;;;;;;6245994;28;20029;-72
2021/08/18 07:57:00;;;;;;;1.52;1.00;;;24.60;54.30;;;;;;6246064;28;20049;-72
2021/08/18 08:00:05;;;;;;;1.20;1.02;;;24.60;54.30;;;;;;6245496;28;20060;-71
2021/08/18 08:03:09;;;;;;;1.35;1.10;;;24.60;54.10;;;;;;6246334;28;20075;-71
2021/08/18 08:06:10;;;;;;;0.82;0.82;;;24.60;55.00;;;;;;6221580;28;20022;-71
2021/08/18 08:09:11;;;;;;;1.65;1.10;;;24.60;54.20;;;;;;6239474;28;20056;-72
2021/08/18 08:12:11;;;;;;;0.98;0.77;;;24.60;54.20;;;;;;6245183;28;20030;-71
2021/08/18 08:15:12;;;;;;;1.23;0.88;;;24.60;54.30;;;;;;6227814;28;20037;-71
2021/08/18 08:18:13;;;;;;;1.67;0.90;;;24.60;54.30;;;;;;6234797;28;20034;-71
2021/08/18 08:21:13;;;;;;;0.95;0.75;;;24.60;54.20;;;;;;6244988;28;20570;-71
2021/08/18 08:24:14;;;;;;;1.15;1.02;;;24.60;54.30;;;;;;6245232;28;20433;-71
2021/08/18 08:27:15;;;;;;;1.33;0.85;;;24.60;54.30;;;;;;6245159;28;20113;-71
2021/08/18 08:30:16;;;;;;;1.73;1.10;;;24.60;54.20;;;;;;6244803;28;20488;-71
2021/08/18 08:33:17;;;;;;;1.05;0.95;;;24.60;54.20;;;;;;6245286;28;20032;-71
2021/08/18 08:36:17;;;;;;;1.13;0.93;;;24.60;54.30;;;;;;6245114;28;20022;-71
2021/08/18 08:39:19;;;;;;;1.35;1.10;;;24.60;54.20;;;;;;6244817;28;20044;-71
2021/08/18 08:42:21;;;;;;;1.10;0.75;;;24.60;54.20;;;;;;6244834;28;20045;-72
2021/08/18 08:45:22;;;;;;;1.90;1.00;;;24.60;54.40;;;;;;6243692;28;20060;-71
2021/08/18 08:48:23;;;;;;;2.08;1.10;;;24.60;54.40;;;;;;6244933;28;20017;-71
2021/08/18 08:51:23;;;;;;;1.00;0.90;;;24.60;54.20;;;;;;6244630;28;20061;-71
2021/08/18 08:54:24;;;;;;;1.75;0.93;;;24.60;54.40;;;;;;6245108;28;20041;-71
2021/08/18 08:57:24;;;;;;;1.20;0.82;;;24.60;54.20;;;;;;6244772;28;20057;-71
2021/08/18 09:00:25;;;;;;;0.93;0.75;;;24.60;54.20;;;;;;6243837;28;20253;-71
2021/08/18 09:03:26;;;;;;;2.15;0.93;;;24.60;54.30;;;;;;6244427;28;20074;-71
2021/08/18 09:06:27;;;;;;;0.95;0.85;;;24.60;54.30;;;;;;6244087;28;20108;-71
2021/08/18 09:09:28;;;;;;;0.93;0.80;;;24.60;54.30;;;;;;6244091;28;20384;-71
2021/08/18 09:12:32;;;;;;;0.93;0.82;;;24.60;54.20;;;;;;6244735;28;20029;-71
2021/08/18 09:15:32;;;;;;;1.40;1.00;;;24.60;54.20;;;;;;6243911;28;20092;-71
2021/08/18 09:18:38;;;;;;;1.10;0.95;;;24.60;54.30;;;;;;6244309;28;20029;-71
2021/08/18 09:21:41;;;;;;;1.00;0.75;;;24.60;54.20;;;;;;6243763;28;20034;-71
2021/08/18 09:24:42;;;;;;;1.05;0.77;;;24.60;54.20;;;;;;6243947;28;20025;-71
2021/08/18 09:27:44;;;;;;;0.85;0.80;;;24.60;54.30;;;;;;6243886;28;20025;-71
2021/08/18 09:30:48;;;;;;;0.70;0.70;;;24.60;54.40;;;;;;6243024;28;20078;-71
2021/08/18 09:33:55;;;;;;;1.00;0.90;;;24.60;54.40;;;;;;6243981;28;20029;-71
2021/08/18 09:37:09;;;;;;;2.40;0.80;;;24.60;54.30;;;;;;6243728;28;20036;-71
2021/08/18 09:40:18;;;;;;;1.95;1.10;;;24.60;54.30;;;;;;6243753;28;20056;-71
2021/08/18 09:43:27;;;;;;;1.38;0.90;;;24.60;54.30;;;;;;6243994;28;20021;-71
2021/08/18 09:46:29;;;;;;;1.48;1.02;;;24.60;54.20;;;;;;6243620;28;20087;-71
2021/08/18 09:49:33;;;;;;;1.60;0.77;;;24.60;54.80;;;;;;6242909;28;20472;-71
2021/08/18 09:52:33;;;;;;;1.42;0.95;;;24.60;54.30;;;;;;6243484;28;20473;-71
2021/08/18 09:55:35;;;;;;;1.60;1.00;;;24.60;54.30;;;;;;6243558;28;20032;-71
2021/08/18 09:58:55;;;;;;;1.10;0.90;;;24.60;54.40;;;;;;6243143;28;20493;-71
2021/08/18 10:01:56;;;;;;;0.93;0.75;;;24.60;54.50;;;;;;6243521;28;20485;-71
2021/08/18 10:04:59;;;;;;;2.15;0.70;;;24.60;54.40;;;;;;6242906;28;20032;-71
2021/08/18 10:08:00;;;;;;;1.35;0.85;;;24.60;54.50;;;;;;6244311;28;20030;-71
2021/08/18 10:11:01;;;;;;;1.05;0.90;;;24.60;54.50;;;;;;6243060;28;20040;-71
2021/08/18 10:14:01;;;;;;;1.02;0.85;;;24.50;54.30;;;;;;6235293;28;20076;-72
2021/08/18 10:17:02;;;;;;;1.25;0.70;;;24.50;54.40;;;;;;6237649;28;20443;-71
2021/08/18 10:20:03;;;;;;;1.25;0.90;;;24.60;54.50;;;;;;6242943;28;20041;-71
2021/08/18 10:23:10;;;;;;;1.10;0.70;;;24.60;54.30;;;;;;6243493;28;20048;-71
2021/08/18 10:26:36;;;;;;;0.80;0.73;;;24.60;54.40;;;;;;6243408;28;20112;-71
2021/08/18 10:29:38;;;;;;;1.08;0.80;;;24.60;54.40;;;;;;6243213;28;20032;-71
2021/08/18 10:32:39;;;;;;;1.13;0.77;;;24.60;54.50;;;;;;6242695;28;20034;-72
2021/08/18 10:35:39;;;;;;;1.10;0.80;;;24.50;54.30;;;;;;6243087;28;20049;-71
2021/08/18 10:38:39;;;;;;;1.48;0.82;;;24.50;54.30;;;;;;6243261;28;20052;-71
2021/08/18 10:41:57;;;;;;;0.70;0.70;;;24.50;54.40;;;;;;6243709;28;20061;-71
2021/08/18 10:44:58;;;;;;;1.05;0.93;;;24.60;54.50;;;;;;6247936;28;20388;-71
2021/08/18 10:48:03;;;;;;;0.90;0.80;;;24.60;54.50;;;;;;6247319;28;20029;-71
2021/08/18 10:51:03;;;;;;;0.80;0.80;;;24.60;54.50;;;;;;6247023;28;20028;-71
2021/08/18 10:54:25;;;;;;;0.93;0.80;;;24.60;54.40;;;;;;6247499;28;20068;-71
2021/08/18 10:57:38;;;;;;;1.13;0.98;;;24.50;54.40;;;;;;6247203;28;20049;-71
2021/08/18 11:00:42;;;;;;;0.65;0.63;;;24.50;54.40;;;;;;6246999;28;20041;-71
2021/08/18 11:03:43;;;;;;;1.05;0.70;;;24.60;54.60;;;;;;6247548;28;20108;-71
2021/08/18 11:06:50;;;;;;;1.02;0.70;;;24.60;54.50;;;;;;6247174;28;20030;-71
2021/08/18 11:09:50;;;;;;;0.90;0.63;;;24.60;54.50;;;;;;6246869;28;20112;-71
2021/08/18 11:12:58;;;;;;;0.95;0.85;;;24.50;54.40;;;;;;6247189;28;20017;-72
2021/08/18 11:15:59;;;;;;;0.90;0.77;;;24.50;54.40;;;;;;6223012;28;20105;-71
2021/08/18 11:19:11;;;;;;;1.52;1.00;;;24.50;54.40;;;;;;6245692;28;20037;-71
2021/08/18 11:22:12;;;;;;;0.82;0.60;;;24.60;54.60;;;;;;6246655;28;20061;-71
2021/08/18 11:25:17;;;;;;;1.10;0.77;;;24.60;54.60;;;;;;6246623;28;20033;-71
2021/08/18 11:28:23;;;;;;;1.55;0.98;;;24.60;54.60;;;;;;6246631;28;20448;-71
2021/08/18 11:31:53;;;;;;;0.75;0.60;;;24.60;54.50;;;;;;6246948;28;20029;-71
2021/08/18 11:34:53;;;;;;;0.90;0.75;;;24.60;54.60;;;;;;6245804;28;20042;-71
2021/08/18 11:38:05;;;;;;;1.20;0.90;;;24.50;54.50;;;;;;6246545;28;20503;-71
2021/08/18 11:41:06;;;;;;;0.65;0.60;;;24.60;54.60;;;;;;6246387;28;20377;-71
2021/08/18 11:44:08;;;;;;;1.63;0.93;;;24.50;54.50;;;;;;6246260;28;20093;-71
2021/08/18 11:47:14;;;;;;;1.00;0.90;;;24.50;54.50;;;;;;6245690;28;20044;-71
2021/08/18 11:50:15;;;;;;;1.50;0.93;;;24.50;54.50;;;;;;6246225;28;20591;-71
2021/08/18 11:53:17;;;;;;;1.50;0.80;;;24.60;54.60;;;;;;6246191;28;20480;-71
2021/08/18 11:56:24;;;;;;;1.58;0.73;;;24.50;54.50;;;;;;6246040;28;20074;-72
2021/08/18 11:59:25;;;;;;;1.40;0.90;;;24.50;54.50;;;;;;6245354;28;20017;-71
2021/08/18 12:02:28;;;;;;;1.52;0.90;;;24.60;54.60;;;;;;6245576;28;20021;-71
2021/08/18 12:05:34;;;;;;;0.88;0.80;;;24.50;54.40;;;;;;6246081;28;20084;-71
2021/08/18 12:08:41;;;;;;;0.90;0.80;;;24.60;54.60;;;;;;6245507;28;20028;-72
2021/08/18 12:11:42;;;;;;;1.38;1.10;;;24.50;54.50;;;;;;6245840;28;20064;-71
2021/08/18 12:14:47;;;;;;;1.25;0.82;;;24.60;54.60;;;;;;6239372;28;20029;-71
2021/08/18 12:17:48;;;;;;;0.88;0.80;;;24.60;54.60;;;;;;6244067;28;20025;-71
2021/08/18 12:20:48;;;;;;;0.80;0.77;;;24.60;54.70;;;;;;6245509;28;20040;-71
2021/08/18 12:23:52;;;;;;;1.10;0.70;;;24.60;54.60;;;;;;6244906;28;20508;-71
2021/08/18 12:27:05;;;;;;;0.70;0.60;;;24.60;54.70;;;;;;6245365;28;20083;-71
2021/08/18 12:30:09;;;;;;;1.20;0.70;;;24.50;54.50;;;;;;6245057;28;20023;-71
2021/08/18 12:33:18;;;;;;;1.13;0.85;;;24.50;54.60;;;;;;6245316;28;20060;-71
2021/08/18 12:36:18;;;;;;;1.92;0.65;;;24.60;54.60;;;;;;6244941;28;20029;-71
2021/08/18 12:39:28;;;;;;;1.00;0.80;;;24.50;54.50;;;;;;6244811;28;20044;-71
2021/08/18 12:42:38;;;;;;;1.25;0.80;;;24.50;54.40;;;;;;6245759;28;20033;-71
2021/08/18 12:45:38;;;;;;;0.80;0.73;;;24.50;54.50;;;;;;6245032;28;20025;-72
2021/08/18 12:48:39;;;;;;;1.10;0.80;;;24.50;54.50;;;;;;6244771;28;20028;-71
2021/08/18 12:51:39;;;;;;;1.02;0.70;;;24.60;54.60;;;;;;6244838;28;20071;-71
2021/08/18 12:54:40;;;;;;;1.08;0.80;;;24.50;54.60;;;;;;6244597;28;20049;-71
2021/08/18 12:57:41;;;;;;;1.30;0.90;;;24.60;54.70;;;;;;6242995;28;20057;-71
2021/08/18 13:00:41;;;;;;;1.73;0.85;;;24.50;54.60;;;;;;6243949;28;20570;-71
2021/08/18 13:03:47;;;;;;;1.52;0.93;;;24.60;54.70;;;;;;6244282;28;20112;-71
2021/08/18 13:06:48;;;;;;;0.80;0.70;;;24.50;54.60;;;;;;6241747;28;20050;-71
2021/08/18 13:09:49;;;;;;;1.10;0.70;;;24.50;54.50;;;;;;6244014;28;20036;-71
2021/08/18 13:12:49;;;;;;;0.77;0.70;;;24.50;54.50;;;;;;6244588;28;20048;-71
2021/08/18 13:15:50;;;;;;;0.88;0.70;;;24.50;54.50;;;;;;6237514;28;20037;-71
2021/08/18 13:18:51;;;;;;;1.13;0.80;;;24.50;54.50;;;;;;6244253;28;20515;-71
2021/08/18 13:21:54;;;;;;;0.60;0.60;;;24.60;54.70;;;;;;6243784;28;20041;-71
2021/08/18 13:24:54;;;;;;;0.85;0.80;;;24.50;54.50;;;;;;6243750;28;20034;-71
2021/08/18 13:27:55;;;;;;;0.77;0.63;;;24.50;54.60;;;;;;6243932;28;20088;-71
2021/08/18 13:30:55;;;;;;;0.82;0.63;;;24.50;54.60;;;;;;6244057;28;20433;-72
2021/08/18 13:33:58;;;;;;;1.15;0.80;;;24.50;54.50;;;;;;6244158;28;20088;-71
2021/08/18 13:36:58;;;;;;;1.75;0.95;;;24.50;54.50;;;;;;6243748;28;20515;-71
2021/08/18 13:39:59;;;;;;;2.60;0.90;;;24.50;54.50;;;;;;6243611;28;20025;-71
2021/08/18 13:42:59;;;;;;;0.82;0.65;;;24.50;54.50;;;;;;6244127;28;20044;-72
2021/08/18 13:46:01;;;;;;;1.13;0.80;;;24.50;54.60;;;;;;6243634;28;20101;-71
2021/08/18 13:49:03;;;;;;;0.80;0.65;;;24.50;54.60;;;;;;6243955;28;20048;-72
2021/08/18 13:52:04;;;;;;;0.70;0.70;;;24.60;54.70;;;;;;6243521;28;20025;-71
2021/08/18 13:55:05;;;;;;;0.75;0.60;;;24.50;54.70;;;;;;6243834;28;20041;-71
2021/08/18 13:58:05;;;;;;;0.77;0.70;;;24.50;54.60;;;;;;6243448;28;20053;-71
2021/08/18 14:01:06;;;;;;;2.30;0.82;;;24.50;54.60;;;;;;6243168;28;20107;-71
2021/08/18 14:04:06;;;;;;;0.65;0.55;;;24.60;54.80;;;;;;6243534;28;20022;-71
2021/08/18 14:07:07;;;;;;;0.80;0.70;;;24.50;54.70;;;;;;6243217;28;20022;-71
2021/08/18 14:10:08;;;;;;;0.70;0.70;;;24.50;54.70;;;;;;6242788;28;20026;-71
2021/08/18 14:13:10;;;;;;;0.65;0.60;;;24.50;54.70;;;;;;6242371;28;20026;-71
2021/08/18 14:16:11;;;;;;;1.10;0.70;;;24.50;54.70;;;;;;6229430;28;20034;-71
2021/08/18 14:19:11;;;;;;;0.88;0.70;;;24.60;54.80;;;;;;6248329;28;20035;-72
2021/08/18 14:22:12;;;;;;;0.63;0.60;;;24.60;54.80;;;;;;6241267;28;20056;-71
2021/08/18 14:25:12;;;;;;;1.13;0.73;;;24.50;54.70;;;;;;6225660;28;20025;-71
2021/08/18 14:28:13;;;;;;;9.05;1.10;;;24.60;54.80;;;;;;6243973;28;20128;-71
2021/08/18 14:31:13;;;;;;;2.13;0.90;;;24.60;54.40;;;;;;6245051;28;20499;-71
2021/08/18 14:34:14;;;;;;;1.48;0.90;;;24.50;54.30;;;;;;6246048;28;20061;-71
2021/08/18 14:37:14;;;;;;;0.93;0.75;;;24.50;54.90;;;;;;6244263;28;20033;-71
2021/08/18 14:40:16;;;;;;;1.05;0.88;;;24.40;54.90;;;;;;6243715;28;20034;-71
2021/08/18 14:43:17;;;;;;;1.45;0.70;;;24.40;54.80;;;;;;6244468;28;20484;-71
2021/08/18 14:46:17;;;;;;;2.58;1.23;;;24.40;54.60;;;;;;6245186;28;20057;-71
2021/08/18 14:49:18;;;;;;;1.20;0.90;;;24.40;53.30;;;;;;6245770;28;20026;-71
2021/08/18 14:52:18;;;;;;;1.45;0.90;;;24.40;54.50;;;;;;6243763;28;20037;-73
2021/08/18 14:55:19;;;;;;;1.67;1.15;;;24.30;54.40;;;;;;6244343;28;20033;-71
2021/08/18 14:58:20;;;;;;;2.60;0.95;;;24.30;54.10;;;;;;6245029;28;20057;-71
2021/08/18 15:01:20;;;;;;;2.45;1.00;;;24.30;53.90;;;;;;6243812;28;20045;-72
2021/08/18 15:04:21;;;;;;;2.65;1.20;;;24.30;53.90;;;;;;6243712;28;20033;-71
2021/08/18 15:07:21;;;;;;;1.73;1.00;;;24.30;53.80;;;;;;6252913;28;20102;-71
2021/08/18 15:10:22;;;;;;;2.08;1.00;;;24.30;54.20;;;;;;6262080;28;20101;-71
2021/08/18 15:13:23;;;;;;;4.05;0.80;;;24.20;53.70;;;;;;6240555;28;20389;-72
2021/08/18 15:16:23;;;;;;;2.00;0.93;;;24.20;53.70;;;;;;6241302;28;20029;-71
2021/08/18 15:19:24;;;;;;;1.13;0.80;;;24.30;53.60;;;;;;6244968;28;20029;-72
2021/08/18 15:22:27;;;;;;;1.50;1.02;;;24.30;53.90;;;;;;6244226;28;20338;-71
2021/08/18 15:25:28;;;;;;;3.28;1.10;;;24.20;53.70;;;;;;6244422;28;20412;-73
2021/08/18 15:28:28;;;;;;;2.25;1.13;;;24.20;53.70;;;;;;6241774;28;20038;-71
2021/08/18 15:31:29;;;;;;;2.15;1.13;;;24.20;53.60;;;;;;6244294;28;20527;-72
2021/08/18 15:34:32;;;;;;;1.90;0.80;;;24.20;53.70;;;;;;6244456;28;20029;-71
2021/08/18 15:37:33;;;;;;;2.20;1.00;;;24.20;53.40;;;;;;6244815;28;20037;-72
2021/08/18 15:40:34;;;;;;;2.35;1.00;;;24.20;53.40;;;;;;6242152;28;20033;-71
2021/08/18 15:43:36;;;;;;;1.55;0.82;;;24.20;53.50;;;;;;6243586;28;20033;-71
2021/08/18 15:46:38;;;;;;;2.17;1.10;;;24.20;53.70;;;;;;6243757;28;20063;-71